sensor_id;sensor_type;location;lat;lon;timestamp;temperature;humidity
4386;DHT22;2207;53.540;10.042;2023-12-04T00:01:21;-1.50;90.40
4386;DHT22;2207;53.540;10.042;2023-12-04T00:03:48;-1.60;90.40
4386;DHT22;2207;53.540;10.042;2023-12-04T00:06:15;-1.60;90.40
4386;DHT22;2207;53.540;10.042;2023-12-04T00:08:41;-1.60;90.40
4386;DHT22;2207;53.540;10.042;2023-12-04T00:11:09;-1.70;90.40
4386;DHT22;2207;53.540;10.042;2023-12-04T00:13:36;-1.70;90.40
4386;DHT22;2207;53.540;10.042;2023-12-04T00:16:03;-1.70;90.40
4386;DHT22;2207;53.540;10.042;2023-12-04T00:18:31;-1.70;90.40
4386;DHT22;2207;53.540;10.042;2023-12-04T00:20:58;-1.70;90.40
4386;DHT22;2207;53.540;10.042;2023-12-04T00:23:24;-1.80;90.40
4386;DHT22;2207;53.540;10.042;2023-12-04T00:25:51;-1.80;90.30
4386;DHT22;2207;53.540;10.042;2023-12-04T00:28:19;-1.90;90.40
4386;DHT22;2207;53.540;10.042;2023-12-04T00:30:46;-1.90;90.50
4386;DHT22;2207;53.540;10.042;2023-12-04T00:33:13;-1.90;90.50
4386;DHT22;2207;53.540;10.042;2023-12-04T00:35:40;-1.90;90.50
4386;DHT22;2207;53.540;10.042;2023-12-04T00:38:07;-1.90;90.50
4386;DHT22;2207;53.540;10.042;2023-12-04T00:40:33;-2.00;90.40
4386;DHT22;2207;53.540;10.042;2023-12-04T00:43:00;-1.90;90.50
4386;DHT22;2207;53.540;10.042;2023-12-04T00:45:28;-2.00;90.50
4386;DHT22;2207;53.540;10.042;2023-12-04T00:47:55;-2.00;90.50
4386;DHT22;2207;53.540;10.042;2023-12-04T00:50:22;-2.00;90.50
4386;DHT22;2207;53.540;10.042;2023-12-04T00:52:49;-2.00;90.50
4386;DHT22;2207;53.540;10.042;2023-12-04T00:55:15;-2.00;90.60
4386;DHT22;2207;53.540;10.042;2023-12-04T00:57:42;-2.00;90.60
4386;DHT22;2207;53.540;10.042;2023-12-04T01:00:09;-2.00;90.60
4386;DHT22;2207;53.540;10.042;2023-12-04T01:02:37;-2.00;90.70
4386;DHT22;2207;53.540;10.042;2023-12-04T01:05:04;-2.00;90.60
4386;DHT22;2207;53.540;10.042;2023-12-04T01:07:31;-2.00;90.60
4386;DHT22;2207;53.540;10.042;2023-12-04T01:09:58;-2.00;90.60
4386;DHT22;2207;53.540;10.042;2023-12-04T01:12:24;-2.00;90.50
4386;DHT22;2207;53.540;10.042;2023-12-04T01:14:52;-2.00;90.50
4386;DHT22;2207;53.540;10.042;2023-12-04T01:17:18;-2.10;90.50
4386;DHT22;2207;53.540;10.042;2023-12-04T01:19:46;-2.10;90.40
4386;DHT22;2207;53.540;10.042;2023-12-04T01:22:13;-2.10;90.40
4386;DHT22;2207;53.540;10.042;2023-12-04T01:24:40;-2.20;90.30
4386;DHT22;2207;53.540;10.042;2023-12-04T01:27:07;-2.20;90.30
4386;DHT22;2207;53.540;10.042;2023-12-04T01:29:33;-2.20;90.30
4386;DHT22;2207;53.540;10.042;2023-12-04T01:32:00;-2.20;90.30
4386;DHT22;2207;53.540;10.042;2023-12-04T01:34:27;-2.20;90.30
4386;DHT22;2207;53.540;10.042;2023-12-04T01:36:55;-2.30;90.30
4386;DHT22;2207;53.540;10.042;2023-12-04T01:39:22;-2.30;90.30
4386;DHT22;2207;53.540;10.042;2023-12-04T01:41:48;-2.30;90.30
4386;DHT22;2207;53.540;10.042;2023-12-04T01:44:15;-2.30;90.40
4386;DHT22;2207;53.540;10.042;2023-12-04T01:46:43;-2.30;90.50
4386;DHT22;2207;53.540;10.042;2023-12-04T01:49:10;-2.40;90.40
4386;DHT22;2207;53.540;10.042;2023-12-04T01:51:36;-2.30;90.50
4386;DHT22;2207;53.540;10.042;2023-12-04T01:54:05;-2.40;90.40
4386;DHT22;2207;53.540;10.042;2023-12-04T01:56:33;-2.40;90.40
4386;DHT22;2207;53.540;10.042;2023-12-04T01:59:00;-2.40;90.50
4386;DHT22;2207;53.540;10.042;2023-12-04T02:01:27;-2.40;90.60
4386;DHT22;2207;53.540;10.042;2023-12-04T02:03:54;-2.40;90.60
4386;DHT22;2207;53.540;10.042;2023-12-04T02:06:22;-2.40;90.60
4386;DHT22;2207;53.540;10.042;2023-12-04T02:08:50;-2.40;90.60
4386;DHT22;2207;53.540;10.042;2023-12-04T02:11:18;-2.40;90.60
4386;DHT22;2207;53.540;10.042;2023-12-04T02:13:45;-2.40;90.60
4386;DHT22;2207;53.540;10.042;2023-12-04T02:16:12;-2.40;90.70
4386;DHT22;2207;53.540;10.042;2023-12-04T02:18:39;-2.40;90.70
4386;DHT22;2207;53.540;10.042;2023-12-04T02:21:07;-2.40;90.80
4386;DHT22;2207;53.540;10.042;2023-12-04T02:23:33;-2.40;90.80
4386;DHT22;2207;53.540;10.042;2023-12-04T02:26:03;-2.40;90.80
4386;DHT22;2207;53.540;10.042;2023-12-04T02:28:32;-2.40;90.80
4386;DHT22;2207;53.540;10.042;2023-12-04T02:31:00;-2.40;90.80
4386;DHT22;2207;53.540;10.042;2023-12-04T02:33:27;-2.40;90.80
4386;DHT22;2207;53.540;10.042;2023-12-04T02:35:55;-2.50;90.70
4386;DHT22;2207;53.540;10.042;2023-12-04T02:38:23;-2.50;90.80
4386;DHT22;2207;53.540;10.042;2023-12-04T02:40:50;-2.50;90.70
4386;DHT22;2207;53.540;10.042;2023-12-04T02:43:18;-2.50;90.80
4386;DHT22;2207;53.540;10.042;2023-12-04T02:45:45;-2.50;90.80
4386;DHT22;2207;53.540;10.042;2023-12-04T02:48:12;-2.50;90.80
4386;DHT22;2207;53.540;10.042;2023-12-04T02:50:39;-2.50;90.80
4386;DHT22;2207;53.540;10.042;2023-12-04T02:53:05;-2.50;90.90
4386;DHT22;2207;53.540;10.042;2023-12-04T02:55:32;-2.50;90.90
4386;DHT22;2207;53.540;10.042;2023-12-04T02:57:59;-2.50;90.90
4386;DHT22;2207;53.540;10.042;2023-12-04T03:00:27;-2.50;90.90
4386;DHT22;2207;53.540;10.042;2023-12-04T03:02:54;-2.50;90.90
4386;DHT22;2207;53.540;10.042;2023-12-04T03:05:20;-2.50;90.90
4386;DHT22;2207;53.540;10.042;2023-12-04T03:07:47;-2.50;91.00
4386;DHT22;2207;53.540;10.042;2023-12-04T03:10:14;-2.50;91.00
4386;DHT22;2207;53.540;10.042;2023-12-04T03:12:41;-2.40;91.00
4386;DHT22;2207;53.540;10.042;2023-12-04T03:15:08;-2.40;91.00
4386;DHT22;2207;53.540;10.042;2023-12-04T03:17:37;-2.40;91.00
4386;DHT22;2207;53.540;10.042;2023-12-04T03:20:04;-2.30;91.00
4386;DHT22;2207;53.540;10.042;2023-12-04T03:22:35;-2.30;91.00
4386;DHT22;2207;53.540;10.042;2023-12-04T03:25:02;-2.30;90.90
4386;DHT22;2207;53.540;10.042;2023-12-04T03:27:29;-2.30;90.90
4386;DHT22;2207;53.540;10.042;2023-12-04T03:29:56;-2.30;90.80
4386;DHT22;2207;53.540;10.042;2023-12-04T03:32:22;-2.30;90.80
4386;DHT22;2207;53.540;10.042;2023-12-04T03:34:50;-2.30;90.80
4386;DHT22;2207;53.540;10.042;2023-12-04T03:37:17;-2.30;90.70
4386;DHT22;2207;53.540;10.042;2023-12-04T03:39:44;-2.20;90.70
4386;DHT22;2207;53.540;10.042;2023-12-04T03:42:11;-2.20;90.70
4386;DHT22;2207;53.540;10.042;2023-12-04T03:44:37;-2.20;90.70
4386;DHT22;2207;53.540;10.042;2023-12-04T03:47:04;-2.20;90.60
4386;DHT22;2207;53.540;10.042;2023-12-04T03:49:31;-2.10;90.60
4386;DHT22;2207;53.540;10.042;2023-12-04T03:51:59;-2.10;90.40
4386;DHT22;2207;53.540;10.042;2023-12-04T03:54:25;-2.10;90.40
4386;DHT22;2207;53.540;10.042;2023-12-04T03:56:52;-2.10;90.40
4386;DHT22;2207;53.540;10.042;2023-12-04T03:59:19;-2.20;90.30
4386;DHT22;2207;53.540;10.042;2023-12-04T04:01:46;-2.20;90.30
4386;DHT22;2207;53.540;10.042;2023-12-04T04:04:12;-2.20;90.30
4386;DHT22;2207;53.540;10.042;2023-12-04T04:06:39;-2.20;90.30
4386;DHT22;2207;53.540;10.042;2023-12-04T04:09:07;-2.20;90.20
4386;DHT22;2207;53.540;10.042;2023-12-04T04:11:34;-2.20;90.20
4386;DHT22;2207;53.540;10.042;2023-12-04T04:14:01;-2.20;90.20
4386;DHT22;2207;53.540;10.042;2023-12-04T04:16:28;-2.20;90.20
4386;DHT22;2207;53.540;10.042;2023-12-04T04:18:55;-2.20;90.20
4386;DHT22;2207;53.540;10.042;2023-12-04T04:21:21;-2.10;90.40
4386;DHT22;2207;53.540;10.042;2023-12-04T04:23:48;-2.10;90.30
4386;DHT22;2207;53.540;10.042;2023-12-04T04:26:16;-2.10;90.30
4386;DHT22;2207;53.540;10.042;2023-12-04T04:28:43;-2.00;90.40
4386;DHT22;2207;53.540;10.042;2023-12-04T04:31:10;-2.00;90.50
4386;DHT22;2207;53.540;10.042;2023-12-04T04:33:36;-1.90;90.60
4386;DHT22;2207;53.540;10.042;2023-12-04T04:36:03;-1.80;90.50
4386;DHT22;2207;53.540;10.042;2023-12-04T04:38:30;-1.80;90.50
4386;DHT22;2207;53.540;10.042;2023-12-04T04:40:57;-1.80;90.50
4386;DHT22;2207;53.540;10.042;2023-12-04T04:43:25;-1.70;90.60
4386;DHT22;2207;53.540;10.042;2023-12-04T04:45:52;-1.60;90.60
4386;DHT22;2207;53.540;10.042;2023-12-04T04:48:18;-1.50;90.70
4386;DHT22;2207;53.540;10.042;2023-12-04T04:50:46;-1.50;90.60
4386;DHT22;2207;53.540;10.042;2023-12-04T04:53:13;-1.40;90.70
4386;DHT22;2207;53.540;10.042;2023-12-04T04:55:39;-1.30;90.70
4386;DHT22;2207;53.540;10.042;2023-12-04T04:58:06;-1.30;90.50
4386;DHT22;2207;53.540;10.042;2023-12-04T05:00:34;-1.30;90.40
4386;DHT22;2207;53.540;10.042;2023-12-04T05:03:01;-1.30;90.30
4386;DHT22;2207;53.540;10.042;2023-12-04T05:05:27;-1.30;90.20
4386;DHT22;2207;53.540;10.042;2023-12-04T05:07:54;-1.30;90.00
4386;DHT22;2207;53.540;10.042;2023-12-04T05:10:21;-1.30;89.90
4386;DHT22;2207;53.540;10.042;2023-12-04T05:12:48;-1.30;89.70
4386;DHT22;2207;53.540;10.042;2023-12-04T05:15:15;-1.20;89.90
4386;DHT22;2207;53.540;10.042;2023-12-04T05:17:43;-1.20;90.00
4386;DHT22;2207;53.540;10.042;2023-12-04T05:20:10;-1.20;89.80
4386;DHT22;2207;53.540;10.042;2023-12-04T05:22:37;-1.10;89.90
4386;DHT22;2207;53.540;10.042;2023-12-04T05:25:04;-1.10;89.80
4386;DHT22;2207;53.540;10.042;2023-12-04T05:27:31;-1.10;89.70
4386;DHT22;2207;53.540;10.042;2023-12-04T05:29:58;-1.10;89.50
4386;DHT22;2207;53.540;10.042;2023-12-04T05:32:25;-1.10;89.30
4386;DHT22;2207;53.540;10.042;2023-12-04T05:34:53;-1.10;89.40
4386;DHT22;2207;53.540;10.042;2023-12-04T05:37:20;-1.10;89.50
4386;DHT22;2207;53.540;10.042;2023-12-04T05:39:47;-1.00;89.50
4386;DHT22;2207;53.540;10.042;2023-12-04T05:42:13;-1.00;89.50
4386;DHT22;2207;53.540;10.042;2023-12-04T05:44:40;-1.10;89.30
4386;DHT22;2207;53.540;10.042;2023-12-04T05:47:07;-1.00;89.40
4386;DHT22;2207;53.540;10.042;2023-12-04T05:49:34;-1.00;89.40
4386;DHT22;2207;53.540;10.042;2023-12-04T05:52:02;-1.00;89.30
4386;DHT22;2207;53.540;10.042;2023-12-04T05:54:28;-1.00;88.90
4386;DHT22;2207;53.540;10.042;2023-12-04T05:56:55;-1.10;88.90
4386;DHT22;2207;53.540;10.042;2023-12-04T05:59:22;-1.10;89.00
4386;DHT22;2207;53.540;10.042;2023-12-04T06:01:49;-1.10;88.90
4386;DHT22;2207;53.540;10.042;2023-12-04T06:04:15;-1.10;89.00
4386;DHT22;2207;53.540;10.042;2023-12-04T06:06:42;-1.10;89.00
4386;DHT22;2207;53.540;10.042;2023-12-04T06:09:11;-1.10;88.90
4386;DHT22;2207;53.540;10.042;2023-12-04T06:11:37;-1.10;89.00
4386;DHT22;2207;53.540;10.042;2023-12-04T06:14:04;-1.10;89.10
4386;DHT22;2207;53.540;10.042;2023-12-04T06:16:31;-1.10;88.90
4386;DHT22;2207;53.540;10.042;2023-12-04T06:18:58;-1.10;88.60
4386;DHT22;2207;53.540;10.042;2023-12-04T06:21:24;-1.20;88.60
4386;DHT22;2207;53.540;10.042;2023-12-04T06:23:51;-1.30;88.30
4386;DHT22;2207;53.540;10.042;2023-12-04T06:26:20;-1.30;88.40
4386;DHT22;2207;53.540;10.042;2023-12-04T06:28:47;-1.40;88.50
4386;DHT22;2207;53.540;10.042;2023-12-04T06:31:14;-1.40;88.60
4386;DHT22;2207;53.540;10.042;2023-12-04T06:33:41;-1.50;88.60
4386;DHT22;2207;53.540;10.042;2023-12-04T06:36:09;-1.50;89.00
4386;DHT22;2207;53.540;10.042;2023-12-04T06:38:38;-1.50;89.00
4386;DHT22;2207;53.540;10.042;2023-12-04T06:41:06;-1.60;89.00
4386;DHT22;2207;53.540;10.042;2023-12-04T06:43:34;-1.60;89.30
4386;DHT22;2207;53.540;10.042;2023-12-04T06:46:01;-1.60;89.50
4386;DHT22;2207;53.540;10.042;2023-12-04T06:48:29;-1.60;89.60
4386;DHT22;2207;53.540;10.042;2023-12-04T06:50:55;-1.60;89.70
4386;DHT22;2207;53.540;10.042;2023-12-04T06:53:22;-1.60;89.80
4386;DHT22;2207;53.540;10.042;2023-12-04T06:55:49;-1.60;90.00
4386;DHT22;2207;53.540;10.042;2023-12-04T06:58:16;-1.70;90.00
4386;DHT22;2207;53.540;10.042;2023-12-04T07:00:45;-1.60;90.10
4386;DHT22;2207;53.540;10.042;2023-12-04T07:03:14;-1.60;90.20
4386;DHT22;2207;53.540;10.042;2023-12-04T07:05:41;-1.60;90.30
4386;DHT22;2207;53.540;10.042;2023-12-04T07:08:07;-1.60;90.30
4386;DHT22;2207;53.540;10.042;2023-12-04T07:10:35;-1.60;90.30
4386;DHT22;2207;53.540;10.042;2023-12-04T07:13:02;-1.60;90.40
4386;DHT22;2207;53.540;10.042;2023-12-04T07:15:29;-1.60;90.40
4386;DHT22;2207;53.540;10.042;2023-12-04T07:17:57;-1.60;90.60
4386;DHT22;2207;53.540;10.042;2023-12-04T07:20:24;-1.60;90.60
4386;DHT22;2207;53.540;10.042;2023-12-04T07:22:50;-1.60;90.60
4386;DHT22;2207;53.540;10.042;2023-12-04T07:25:17;-1.50;90.60
4386;DHT22;2207;53.540;10.042;2023-12-04T07:27:44;-1.50;90.70
4386;DHT22;2207;53.540;10.042;2023-12-04T07:30:11;-1.50;90.60
4386;DHT22;2207;53.540;10.042;2023-12-04T07:32:38;-1.50;90.60
4386;DHT22;2207;53.540;10.042;2023-12-04T07:35:07;-1.40;90.80
4386;DHT22;2207;53.540;10.042;2023-12-04T07:37:34;-1.40;90.70
4386;DHT22;2207;53.540;10.042;2023-12-04T07:40:00;-1.40;90.70
4386;DHT22;2207;53.540;10.042;2023-12-04T07:42:27;-1.40;90.70
4386;DHT22;2207;53.540;10.042;2023-12-04T07:44:54;-1.40;90.70
4386;DHT22;2207;53.540;10.042;2023-12-04T07:47:20;-1.40;90.70
4386;DHT22;2207;53.540;10.042;2023-12-04T07:49:47;-1.40;90.70
4386;DHT22;2207;53.540;10.042;2023-12-04T07:52:16;-1.40;90.80
4386;DHT22;2207;53.540;10.042;2023-12-04T07:54:44;-1.40;90.80
4386;DHT22;2207;53.540;10.042;2023-12-04T07:57:11;-1.40;90.90
4386;DHT22;2207;53.540;10.042;2023-12-04T07:59:41;-1.30;91.00
4386;DHT22;2207;53.540;10.042;2023-12-04T08:02:08;-1.30;91.00
4386;DHT22;2207;53.540;10.042;2023-12-04T08:04:35;-1.30;91.00
4386;DHT22;2207;53.540;10.042;2023-12-04T08:07:02;-1.30;91.00
4386;DHT22;2207;53.540;10.042;2023-12-04T08:09:32;-1.20;91.10
4386;DHT22;2207;53.540;10.042;2023-12-04T08:14:24;-1.20;91.10
4386;DHT22;2207;53.540;10.042;2023-12-04T08:16:52;-1.20;91.10
4386;DHT22;2207;53.540;10.042;2023-12-04T08:19:18;-1.20;91.20
4386;DHT22;2207;53.540;10.042;2023-12-04T08:21:45;-1.10;91.20
4386;DHT22;2207;53.540;10.042;2023-12-04T08:24:13;-1.10;91.20
4386;DHT22;2207;53.540;10.042;2023-12-04T08:26:43;-1.10;91.20
4386;DHT22;2207;53.540;10.042;2023-12-04T08:29:11;-1.10;91.20
4386;DHT22;2207;53.540;10.042;2023-12-04T08:31:38;-1.00;91.30
4386;DHT22;2207;53.540;10.042;2023-12-04T08:34:04;-0.90;91.50
4386;DHT22;2207;53.540;10.042;2023-12-04T08:36:39;-0.80;91.50
4386;DHT22;2207;53.540;10.042;2023-12-04T08:39:06;-0.80;91.40
4386;DHT22;2207;53.540;10.042;2023-12-04T08:41:33;-0.80;91.40
4386;DHT22;2207;53.540;10.042;2023-12-04T08:44:01;-0.80;91.40
4386;DHT22;2207;53.540;10.042;2023-12-04T08:46:28;-0.70;91.50
4386;DHT22;2207;53.540;10.042;2023-12-04T08:48:55;-0.70;91.40
4386;DHT22;2207;53.540;10.042;2023-12-04T08:51:21;-0.70;91.30
4386;DHT22;2207;53.540;10.042;2023-12-04T08:53:48;-0.70;91.30
4386;DHT22;2207;53.540;10.042;2023-12-04T08:56:15;-0.70;91.30
4386;DHT22;2207;53.540;10.042;2023-12-04T08:58:43;-0.70;91.20
4386;DHT22;2207;53.540;10.042;2023-12-04T09:01:11;-0.70;91.30
4386;DHT22;2207;53.540;10.042;2023-12-04T09:03:38;-0.70;91.30
4386;DHT22;2207;53.540;10.042;2023-12-04T09:06:09;-0.60;91.30
4386;DHT22;2207;53.540;10.042;2023-12-04T09:08:38;-0.70;91.30
4386;DHT22;2207;53.540;10.042;2023-12-04T09:11:05;-0.60;91.30
4386;DHT22;2207;53.540;10.042;2023-12-04T09:37:58;22.10;31.70
4386;DHT22;2207;53.540;10.042;2023-12-04T09:40:25;19.10;34.80
4386;DHT22;2207;53.540;10.042;2023-12-04T09:42:51;18.10;36.30
4386;DHT22;2207;53.540;10.042;2023-12-04T09:45:19;17.30;37.50
4386;DHT22;2207;53.540;10.042;2023-12-04T09:47:47;17.10;38.30
4386;DHT22;2207;53.540;10.042;2023-12-04T09:50:14;16.90;38.60
4386;DHT22;2207;53.540;10.042;2023-12-04T09:55:09;19.40;42.50
4386;DHT22;2207;53.540;10.042;2023-12-04T09:57:36;18.20;37.50
4386;DHT22;2207;53.540;10.042;2023-12-04T10:00:03;16.90;37.30
4386;DHT22;2207;53.540;10.042;2023-12-04T10:02:31;16.60;38.60
4386;DHT22;2207;53.540;10.042;2023-12-04T10:04:58;16.40;38.80
4386;DHT22;2207;53.540;10.042;2023-12-04T10:07:25;16.40;38.80
4386;DHT22;2207;53.540;10.042;2023-12-04T10:09:52;16.50;38.90
4386;DHT22;2207;53.540;10.042;2023-12-04T10:12:20;16.50;38.60
4386;DHT22;2207;53.540;10.042;2023-12-04T10:14:52;16.40;38.40
4386;DHT22;2207;53.540;10.042;2023-12-04T10:17:28;16.60;38.50
4386;DHT22;2207;53.540;10.042;2023-12-04T10:20:06;16.70;38.80
4386;DHT22;2207;53.540;10.042;2023-12-04T10:22:38;17.00;38.10
4386;DHT22;2207;53.540;10.042;2023-12-04T10:27:51;17.30;36.60
4386;DHT22;2207;53.540;10.042;2023-12-04T10:30:23;17.00;36.80
4386;DHT22;2207;53.540;10.042;2023-12-04T10:32:53;16.90;37.70
4386;DHT22;2207;53.540;10.042;2023-12-04T10:35:20;16.80;37.80
4386;DHT22;2207;53.540;10.042;2023-12-04T10:37:48;16.90;37.50
4386;DHT22;2207;53.540;10.042;2023-12-04T10:40:22;16.80;37.60
4386;DHT22;2207;53.540;10.042;2023-12-04T10:42:48;16.80;37.80
4386;DHT22;2207;53.540;10.042;2023-12-04T10:45:17;16.80;37.60
4386;DHT22;2207;53.540;10.042;2023-12-04T10:47:46;16.90;37.20
4386;DHT22;2207;53.540;10.042;2023-12-04T10:50:13;16.90;37.30
4386;DHT22;2207;53.540;10.042;2023-12-04T10:52:40;16.80;37.30
4386;DHT22;2207;53.540;10.042;2023-12-04T10:55:08;16.80;37.50
4386;DHT22;2207;53.540;10.042;2023-12-04T10:57:38;16.80;37.30
4386;DHT22;2207;53.540;10.042;2023-12-04T11:00:06;16.80;37.60
4386;DHT22;2207;53.540;10.042;2023-12-04T11:02:35;16.80;37.00
4386;DHT22;2207;53.540;10.042;2023-12-04T11:05:04;17.00;37.00
4386;DHT22;2207;53.540;10.042;2023-12-04T11:07:38;17.00;37.10
4386;DHT22;2207;53.540;10.042;2023-12-04T11:10:07;16.80;37.10
4386;DHT22;2207;53.540;10.042;2023-12-04T11:12:36;16.80;36.90
4386;DHT22;2207;53.540;10.042;2023-12-04T11:15:05;16.80;37.20
4386;DHT22;2207;53.540;10.042;2023-12-04T11:17:33;16.80;37.00
4386;DHT22;2207;53.540;10.042;2023-12-04T11:20:04;16.80;36.90
4386;DHT22;2207;53.540;10.042;2023-12-04T11:22:33;16.70;36.80
4386;DHT22;2207;53.540;10.042;2023-12-04T11:25:04;16.90;36.80
4386;DHT22;2207;53.540;10.042;2023-12-04T11:27:33;16.90;36.70
4386;DHT22;2207;53.540;10.042;2023-12-04T11:30:00;16.80;36.80
4386;DHT22;2207;53.540;10.042;2023-12-04T11:32:28;16.80;36.90
4386;DHT22;2207;53.540;10.042;2023-12-04T11:34:55;16.80;36.80
4386;DHT22;2207;53.540;10.042;2023-12-04T11:56:24;17.50;37.00
4386;DHT22;2207;53.540;10.042;2023-12-04T11:58:52;17.40;36.30
4386;DHT22;2207;53.540;10.042;2023-12-04T12:01:19;17.40;36.50
4386;DHT22;2207;53.540;10.042;2023-12-04T12:03:50;17.40;36.60
4386;DHT22;2207;53.540;10.042;2023-12-04T12:06:16;17.30;36.40
4386;DHT22;2207;53.540;10.042;2023-12-04T12:08:43;17.30;36.40
4386;DHT22;2207;53.540;10.042;2023-12-04T12:11:10;18.00;42.00
4386;DHT22;2207;53.540;10.042;2023-12-04T12:13:46;19.00;35.10
4386;DHT22;2207;53.540;10.042;2023-12-04T12:16:13;19.20;34.10
4386;DHT22;2207;53.540;10.042;2023-12-04T12:18:40;19.50;33.80
4386;DHT22;2207;53.540;10.042;2023-12-04T12:21:07;19.50;33.40
4386;DHT22;2207;53.540;10.042;2023-12-04T12:23:34;19.20;33.40
4386;DHT22;2207;53.540;10.042;2023-12-04T12:26:00;19.10;33.80
4386;DHT22;2207;53.540;10.042;2023-12-04T12:28:28;19.00;33.80
4386;DHT22;2207;53.540;10.042;2023-12-04T12:30:56;18.90;33.80
4386;DHT22;2207;53.540;10.042;2023-12-04T12:33:23;18.80;33.80
4386;DHT22;2207;53.540;10.042;2023-12-04T12:48:59;19.10;33.60
4386;DHT22;2207;53.540;10.042;2023-12-04T12:51:25;18.90;32.90
4386;DHT22;2207;53.540;10.042;2023-12-04T12:53:52;18.90;33.20
4386;DHT22;2207;53.540;10.042;2023-12-04T12:56:19;18.90;33.30
4386;DHT22;2207;53.540;10.042;2023-12-04T12:58:47;18.80;33.00
4386;DHT22;2207;53.540;10.042;2023-12-04T13:01:13;18.70;33.10
4386;DHT22;2207;53.540;10.042;2023-12-04T13:03:40;18.60;33.20
4386;DHT22;2207;53.540;10.042;2023-12-04T13:06:09;18.60;33.30
4386;DHT22;2207;53.540;10.042;2023-12-04T13:08:35;18.50;33.30
4386;DHT22;2207;53.540;10.042;2023-12-04T13:11:02;18.60;33.60
4386;DHT22;2207;53.540;10.042;2023-12-04T13:13:29;18.50;33.10
4386;DHT22;2207;53.540;10.042;2023-12-04T13:15:57;18.50;33.70
4386;DHT22;2207;53.540;10.042;2023-12-04T13:18:24;18.60;33.20
4386;DHT22;2207;53.540;10.042;2023-12-04T13:20:50;18.70;32.90
4386;DHT22;2207;53.540;10.042;2023-12-04T13:23:18;18.70;32.50
4386;DHT22;2207;53.540;10.042;2023-12-04T13:25:45;18.80;32.70
4386;DHT22;2207;53.540;10.042;2023-12-04T13:28:12;19.10;32.60
4386;DHT22;2207;53.540;10.042;2023-12-04T13:30:40;18.50;32.90
4386;DHT22;2207;53.540;10.042;2023-12-04T13:33:08;18.20;33.40
4386;DHT22;2207;53.540;10.042;2023-12-04T13:35:34;18.30;34.00
4386;DHT22;2207;53.540;10.042;2023-12-04T13:38:01;18.30;33.70
4386;DHT22;2207;53.540;10.042;2023-12-04T13:40:29;18.20;33.70
4386;DHT22;2207;53.540;10.042;2023-12-04T13:42:57;18.10;34.10
4386;DHT22;2207;53.540;10.042;2023-12-04T13:45:41;17.90;34.20
4386;DHT22;2207;53.540;10.042;2023-12-04T13:48:08;17.90;34.20
4386;DHT22;2207;53.540;10.042;2023-12-04T13:50:35;17.90;34.10
4386;DHT22;2207;53.540;10.042;2023-12-04T13:53:01;17.90;34.40
4386;DHT22;2207;53.540;10.042;2023-12-04T13:55:30;17.80;34.00
4386;DHT22;2207;53.540;10.042;2023-12-04T13:58:12;17.90;34.40
4386;DHT22;2207;53.540;10.042;2023-12-04T14:01:01;17.80;34.30
4386;DHT22;2207;53.540;10.042;2023-12-04T14:03:37;17.80;34.00
4386;DHT22;2207;53.540;10.042;2023-12-04T14:06:04;17.80;34.00
4386;DHT22;2207;53.540;10.042;2023-12-04T14:08:31;17.80;34.00
4386;DHT22;2207;53.540;10.042;2023-12-04T14:10:59;17.90;34.10
4386;DHT22;2207;53.540;10.042;2023-12-04T14:13:26;17.80;34.20
4386;DHT22;2207;53.540;10.042;2023-12-04T14:15:52;17.90;34.30
4386;DHT22;2207;53.540;10.042;2023-12-04T14:18:19;18.00;34.10
4386;DHT22;2207;53.540;10.042;2023-12-04T14:20:46;18.10;34.40
4386;DHT22;2207;53.540;10.042;2023-12-04T14:23:13;18.20;33.80
4386;DHT22;2207;53.540;10.042;2023-12-04T14:25:41;18.20;33.60
4386;DHT22;2207;53.540;10.042;2023-12-04T14:28:09;18.10;34.00
4386;DHT22;2207;53.540;10.042;2023-12-04T14:30:36;18.20;33.80
4386;DHT22;2207;53.540;10.042;2023-12-04T14:33:03;18.20;33.70
4386;DHT22;2207;53.540;10.042;2023-12-04T14:35:29;18.20;34.00
4386;DHT22;2207;53.540;10.042;2023-12-04T14:37:56;18.10;33.60
4386;DHT22;2207;53.540;10.042;2023-12-04T14:40:22;18.20;33.80
4386;DHT22;2207;53.540;10.042;2023-12-04T14:42:49;18.20;33.70
4386;DHT22;2207;53.540;10.042;2023-12-04T14:45:17;18.10;33.50
4386;DHT22;2207;53.540;10.042;2023-12-04T14:47:44;18.10;33.80
4386;DHT22;2207;53.540;10.042;2023-12-04T14:50:13;18.10;33.70
4386;DHT22;2207;53.540;10.042;2023-12-04T14:52:40;18.10;33.70
4386;DHT22;2207;53.540;10.042;2023-12-04T14:55:12;18.00;33.70
4386;DHT22;2207;53.540;10.042;2023-12-04T14:57:53;18.00;33.80
4386;DHT22;2207;53.540;10.042;2023-12-04T15:00:53;18.00;33.90
4386;DHT22;2207;53.540;10.042;2023-12-04T15:03:37;18.00;33.60
4386;DHT22;2207;53.540;10.042;2023-12-04T15:06:17;18.00;33.80
4386;DHT22;2207;53.540;10.042;2023-12-04T15:09:08;18.70;33.60
4386;DHT22;2207;53.540;10.042;2023-12-04T15:11:58;20.70;30.50
4386;DHT22;2207;53.540;10.042;2023-12-04T15:14:38;21.40;29.50
4386;DHT22;2207;53.540;10.042;2023-12-04T15:17:12;21.70;29.00
4386;DHT22;2207;53.540;10.042;2023-12-04T15:19:43;21.90;28.80
4386;DHT22;2207;53.540;10.042;2023-12-04T15:22:39;21.90;28.50
4386;DHT22;2207;53.540;10.042;2023-12-04T15:25:05;22.00;28.50
4386;DHT22;2207;53.540;10.042;2023-12-04T15:27:33;22.00;28.50
4386;DHT22;2207;53.540;10.042;2023-12-04T15:29:59;22.00;28.50
